KBVO

Bartlesville Municipal Airport

Bartlesville, Oklahoma, USA
METAR KBVO 190253Z AUTO 19005KT 10SM CLR 02/M11 A3020 RMK AO2 SLP231 T00221106 53006
Observed Flight Rules
Jan-19 @ 02:53 UTC (53 minutes ago) Visual Flight Rules
Wind Visibility Clouds
190° at 5 knots 10 miles
  • Clear skies
Temperatures Readings
Current 2°C / 36°F
Dewpoint -11°C / 12°F
Humidity 38%
Altimeter 30.2" Hg
Pressure 1023.1 hPa
Elevation 210
METAR KBVO 190253Z AUTO 19005KT 10SM CLR 02/M11 A3020 RMK AO2 SLP231 T00221106 53006
Observed Flight Rules
Jan-19 @ 02:53 UTC
(53 minutes ago)
VFR
Wind Visibility
190° at 5 knots 10 miles
Clouds
  • Clear skies
Temperature Dewpoint
2°C / 36°F -11°C / 12°F
Humidity Altimeter Pressure
38% 30.2" Hg 1023.1 hPa